sensor_id;sensor_type;location;lat;lon;timestamp;temperature;humidity
12872;DHT22;6504;53.766;9.626;2024-03-07T00:01:15;2.80;99.90
12872;DHT22;6504;53.766;9.626;2024-03-07T00:03:43;2.80;99.90
12872;DHT22;6504;53.766;9.626;2024-03-07T00:06:12;2.80;99.90
12872;DHT22;6504;53.766;9.626;2024-03-07T00:08:41;2.80;99.90
12872;DHT22;6504;53.766;9.626;2024-03-07T00:11:09;2.80;99.90
12872;DHT22;6504;53.766;9.626;2024-03-07T00:13:37;2.80;99.90
12872;DHT22;6504;53.766;9.626;2024-03-07T00:16:06;2.80;99.90
12872;DHT22;6504;53.766;9.626;2024-03-07T00:18:35;2.80;99.90
12872;DHT22;6504;53.766;9.626;2024-03-07T00:21:04;2.80;99.90
12872;DHT22;6504;53.766;9.626;2024-03-07T00:23:34;2.90;99.90
12872;DHT22;6504;53.766;9.626;2024-03-07T00:26:03;2.90;99.90
12872;DHT22;6504;53.766;9.626;2024-03-07T00:28:32;3.00;99.90
12872;DHT22;6504;53.766;9.626;2024-03-07T00:31:05;3.00;99.90
12872;DHT22;6504;53.766;9.626;2024-03-07T00:33:35;3.00;99.90
12872;DHT22;6504;53.766;9.626;2024-03-07T00:36:23;3.10;99.90
12872;DHT22;6504;53.766;9.626;2024-03-07T00:38:51;3.10;99.90
12872;DHT22;6504;53.766;9.626;2024-03-07T00:41:21;3.10;99.90
12872;DHT22;6504;53.766;9.626;2024-03-07T00:43:49;3.10;99.90
12872;DHT22;6504;53.766;9.626;2024-03-07T00:46:18;3.20;99.90
12872;DHT22;6504;53.766;9.626;2024-03-07T00:48:46;3.20;99.90
12872;DHT22;6504;53.766;9.626;2024-03-07T00:51:14;3.30;99.90
12872;DHT22;6504;53.766;9.626;2024-03-07T00:53:42;3.30;99.90
12872;DHT22;6504;53.766;9.626;2024-03-07T00:56:10;3.30;99.90
12872;DHT22;6504;53.766;9.626;2024-03-07T00:58:40;3.40;99.90
12872;DHT22;6504;53.766;9.626;2024-03-07T01:01:08;3.40;99.90
12872;DHT22;6504;53.766;9.626;2024-03-07T01:03:38;3.40;99.90
12872;DHT22;6504;53.766;9.626;2024-03-07T01:06:07;3.40;99.90
12872;DHT22;6504;53.766;9.626;2024-03-07T01:08:36;3.40;99.90
12872;DHT22;6504;53.766;9.626;2024-03-07T01:11:04;3.50;99.90
12872;DHT22;6504;53.766;9.626;2024-03-07T01:13:36;3.50;99.90
12872;DHT22;6504;53.766;9.626;2024-03-07T01:16:06;3.50;99.90
12872;DHT22;6504;53.766;9.626;2024-03-07T01:18:35;3.60;99.90
12872;DHT22;6504;53.766;9.626;2024-03-07T01:21:05;3.60;99.90
12872;DHT22;6504;53.766;9.626;2024-03-07T01:23:35;3.60;99.90
12872;DHT22;6504;53.766;9.626;2024-03-07T01:26:03;3.60;99.90
12872;DHT22;6504;53.766;9.626;2024-03-07T01:28:31;3.60;99.90
12872;DHT22;6504;53.766;9.626;2024-03-07T01:31:00;3.60;99.90
12872;DHT22;6504;53.766;9.626;2024-03-07T01:33:29;3.70;99.90
12872;DHT22;6504;53.766;9.626;2024-03-07T01:35:57;3.70;99.90
12872;DHT22;6504;53.766;9.626;2024-03-07T01:38:25;3.70;99.90
12872;DHT22;6504;53.766;9.626;2024-03-07T01:40:54;3.70;99.90
12872;DHT22;6504;53.766;9.626;2024-03-07T01:43:22;3.70;99.90
12872;DHT22;6504;53.766;9.626;2024-03-07T01:45:54;3.70;99.90
12872;DHT22;6504;53.766;9.626;2024-03-07T01:48:26;3.70;99.90
12872;DHT22;6504;53.766;9.626;2024-03-07T01:50:57;3.80;99.90
12872;DHT22;6504;53.766;9.626;2024-03-07T01:53:27;3.80;99.90
12872;DHT22;6504;53.766;9.626;2024-03-07T01:55:56;3.80;99.90
12872;DHT22;6504;53.766;9.626;2024-03-07T01:58:25;3.80;99.90
12872;DHT22;6504;53.766;9.626;2024-03-07T02:00:53;3.80;99.90
12872;DHT22;6504;53.766;9.626;2024-03-07T02:03:21;3.80;99.90
12872;DHT22;6504;53.766;9.626;2024-03-07T02:05:49;3.80;99.90
12872;DHT22;6504;53.766;9.626;2024-03-07T02:08:20;3.80;99.90
12872;DHT22;6504;53.766;9.626;2024-03-07T02:10:48;3.80;99.90
12872;DHT22;6504;53.766;9.626;2024-03-07T02:13:16;3.80;99.90
12872;DHT22;6504;53.766;9.626;2024-03-07T02:15:45;3.80;99.90
12872;DHT22;6504;53.766;9.626;2024-03-07T02:18:13;3.80;99.90
12872;DHT22;6504;53.766;9.626;2024-03-07T02:20:44;3.80;99.90
12872;DHT22;6504;53.766;9.626;2024-03-07T02:23:13;3.80;99.90
12872;DHT22;6504;53.766;9.626;2024-03-07T02:25:41;3.80;99.90
12872;DHT22;6504;53.766;9.626;2024-03-07T02:28:09;3.80;99.90
12872;DHT22;6504;53.766;9.626;2024-03-07T02:30:38;3.80;99.90
12872;DHT22;6504;53.766;9.626;2024-03-07T02:33:06;3.80;99.90
12872;DHT22;6504;53.766;9.626;2024-03-07T02:35:36;3.80;99.90
12872;DHT22;6504;53.766;9.626;2024-03-07T02:38:06;3.80;99.90
12872;DHT22;6504;53.766;9.626;2024-03-07T02:40:35;3.80;99.90
12872;DHT22;6504;53.766;9.626;2024-03-07T02:43:03;3.80;99.90
12872;DHT22;6504;53.766;9.626;2024-03-07T02:45:33;3.80;99.90
12872;DHT22;6504;53.766;9.626;2024-03-07T02:48:02;3.80;99.90
12872;DHT22;6504;53.766;9.626;2024-03-07T02:50:31;3.80;99.90
12872;DHT22;6504;53.766;9.626;2024-03-07T02:52:59;3.80;99.90
12872;DHT22;6504;53.766;9.626;2024-03-07T02:55:29;3.80;99.90
12872;DHT22;6504;53.766;9.626;2024-03-07T02:57:57;3.80;99.90
12872;DHT22;6504;53.766;9.626;2024-03-07T03:00:25;3.80;99.90
12872;DHT22;6504;53.766;9.626;2024-03-07T03:02:56;3.80;99.90
12872;DHT22;6504;53.766;9.626;2024-03-07T03:05:25;3.80;99.90
12872;DHT22;6504;53.766;9.626;2024-03-07T03:07:53;3.90;99.90
12872;DHT22;6504;53.766;9.626;2024-03-07T03:10:22;3.80;99.90
12872;DHT22;6504;53.766;9.626;2024-03-07T03:12:55;3.80;99.90
12872;DHT22;6504;53.766;9.626;2024-03-07T03:15:25;3.80;99.90
12872;DHT22;6504;53.766;9.626;2024-03-07T03:17:53;3.80;99.90
12872;DHT22;6504;53.766;9.626;2024-03-07T03:20:21;3.80;99.90
12872;DHT22;6504;53.766;9.626;2024-03-07T03:22:53;3.80;99.90
12872;DHT22;6504;53.766;9.626;2024-03-07T03:25:41;3.80;99.90
12872;DHT22;6504;53.766;9.626;2024-03-07T03:28:11;3.80;99.90
12872;DHT22;6504;53.766;9.626;2024-03-07T03:30:40;3.80;99.90
12872;DHT22;6504;53.766;9.626;2024-03-07T03:33:09;3.80;99.90
12872;DHT22;6504;53.766;9.626;2024-03-07T03:35:38;3.80;99.90
12872;DHT22;6504;53.766;9.626;2024-03-07T03:38:07;3.80;99.90
12872;DHT22;6504;53.766;9.626;2024-03-07T03:40:36;3.80;99.90
12872;DHT22;6504;53.766;9.626;2024-03-07T03:43:04;3.80;99.90
12872;DHT22;6504;53.766;9.626;2024-03-07T03:45:34;3.80;99.90
12872;DHT22;6504;53.766;9.626;2024-03-07T03:48:03;3.80;99.90
12872;DHT22;6504;53.766;9.626;2024-03-07T03:50:31;3.80;99.90
12872;DHT22;6504;53.766;9.626;2024-03-07T03:52:59;3.80;99.90
12872;DHT22;6504;53.766;9.626;2024-03-07T03:55:28;3.80;99.90
12872;DHT22;6504;53.766;9.626;2024-03-07T03:57:56;3.80;99.90
12872;DHT22;6504;53.766;9.626;2024-03-07T04:00:25;3.80;99.90
12872;DHT22;6504;53.766;9.626;2024-03-07T04:02:54;3.80;99.90
12872;DHT22;6504;53.766;9.626;2024-03-07T04:05:22;3.80;99.90
12872;DHT22;6504;53.766;9.626;2024-03-07T04:07:51;3.70;99.90
12872;DHT22;6504;53.766;9.626;2024-03-07T04:10:19;3.70;99.90
12872;DHT22;6504;53.766;9.626;2024-03-07T04:12:48;3.70;99.90
12872;DHT22;6504;53.766;9.626;2024-03-07T04:15:16;3.70;99.90
12872;DHT22;6504;53.766;9.626;2024-03-07T04:17:46;3.70;99.90
12872;DHT22;6504;53.766;9.626;2024-03-07T04:20:17;3.70;99.90
12872;DHT22;6504;53.766;9.626;2024-03-07T04:22:48;3.70;99.90
12872;DHT22;6504;53.766;9.626;2024-03-07T04:25:17;3.70;99.90
12872;DHT22;6504;53.766;9.626;2024-03-07T04:27:46;3.70;99.90
12872;DHT22;6504;53.766;9.626;2024-03-07T04:30:16;3.60;99.90
12872;DHT22;6504;53.766;9.626;2024-03-07T04:32:44;3.60;99.90
12872;DHT22;6504;53.766;9.626;2024-03-07T04:35:12;3.60;99.90
12872;DHT22;6504;53.766;9.626;2024-03-07T04:37:46;3.60;99.90
12872;DHT22;6504;53.766;9.626;2024-03-07T04:40:14;3.50;99.90
12872;DHT22;6504;53.766;9.626;2024-03-07T04:42:47;3.50;99.90
12872;DHT22;6504;53.766;9.626;2024-03-07T04:45:17;3.50;99.90
12872;DHT22;6504;53.766;9.626;2024-03-07T04:47:45;3.40;99.90
12872;DHT22;6504;53.766;9.626;2024-03-07T04:50:15;3.30;99.90
12872;DHT22;6504;53.766;9.626;2024-03-07T04:52:47;3.20;99.90
12872;DHT22;6504;53.766;9.626;2024-03-07T04:55:17;3.10;99.90
12872;DHT22;6504;53.766;9.626;2024-03-07T04:57:45;3.10;99.90
12872;DHT22;6504;53.766;9.626;2024-03-07T05:00:14;3.00;99.90
12872;DHT22;6504;53.766;9.626;2024-03-07T05:02:48;2.90;99.90
12872;DHT22;6504;53.766;9.626;2024-03-07T05:05:18;2.90;99.90
12872;DHT22;6504;53.766;9.626;2024-03-07T05:07:51;2.80;99.90
12872;DHT22;6504;53.766;9.626;2024-03-07T05:10:20;2.80;99.90
12872;DHT22;6504;53.766;9.626;2024-03-07T05:12:48;2.70;99.90
12872;DHT22;6504;53.766;9.626;2024-03-07T05:15:17;2.70;99.90
12872;DHT22;6504;53.766;9.626;2024-03-07T05:17:45;2.60;99.90
12872;DHT22;6504;53.766;9.626;2024-03-07T05:20:13;2.50;99.90
12872;DHT22;6504;53.766;9.626;2024-03-07T05:22:42;2.50;99.90
12872;DHT22;6504;53.766;9.626;2024-03-07T05:25:15;2.50;99.90
12872;DHT22;6504;53.766;9.626;2024-03-07T05:27:45;2.50;99.90
12872;DHT22;6504;53.766;9.626;2024-03-07T05:30:13;2.40;99.90
12872;DHT22;6504;53.766;9.626;2024-03-07T05:32:42;2.40;99.90
12872;DHT22;6504;53.766;9.626;2024-03-07T05:35:11;2.40;99.90
12872;DHT22;6504;53.766;9.626;2024-03-07T05:37:39;2.30;99.90
12872;DHT22;6504;53.766;9.626;2024-03-07T05:40:15;2.30;99.90
12872;DHT22;6504;53.766;9.626;2024-03-07T05:42:43;2.20;99.90
12872;DHT22;6504;53.766;9.626;2024-03-07T05:45:11;2.20;99.90
12872;DHT22;6504;53.766;9.626;2024-03-07T05:47:41;2.20;99.90
12872;DHT22;6504;53.766;9.626;2024-03-07T05:50:10;2.20;99.90
12872;DHT22;6504;53.766;9.626;2024-03-07T05:52:40;2.20;99.90
12872;DHT22;6504;53.766;9.626;2024-03-07T05:55:08;2.10;99.90
12872;DHT22;6504;53.766;9.626;2024-03-07T05:57:39;2.10;99.90
12872;DHT22;6504;53.766;9.626;2024-03-07T06:00:11;2.10;99.90
12872;DHT22;6504;53.766;9.626;2024-03-07T06:02:42;2.10;99.90
12872;DHT22;6504;53.766;9.626;2024-03-07T06:05:10;2.10;99.90
12872;DHT22;6504;53.766;9.626;2024-03-07T06:07:43;2.10;99.90
12872;DHT22;6504;53.766;9.626;2024-03-07T06:10:11;2.10;99.90
12872;DHT22;6504;53.766;9.626;2024-03-07T06:12:40;2.10;99.90
12872;DHT22;6504;53.766;9.626;2024-03-07T06:15:30;2.10;99.90
12872;DHT22;6504;53.766;9.626;2024-03-07T06:17:58;2.10;99.90
12872;DHT22;6504;53.766;9.626;2024-03-07T06:20:27;2.10;99.90
12872;DHT22;6504;53.766;9.626;2024-03-07T06:22:55;2.10;99.90
12872;DHT22;6504;53.766;9.626;2024-03-07T06:25:24;2.10;99.90
12872;DHT22;6504;53.766;9.626;2024-03-07T06:28:05;2.10;99.90
12872;DHT22;6504;53.766;9.626;2024-03-07T06:30:39;2.20;99.90
12872;DHT22;6504;53.766;9.626;2024-03-07T06:33:08;2.20;99.90
12872;DHT22;6504;53.766;9.626;2024-03-07T06:35:36;2.20;99.90
12872;DHT22;6504;53.766;9.626;2024-03-07T06:38:06;2.30;99.90
12872;DHT22;6504;53.766;9.626;2024-03-07T06:40:35;2.20;99.90
12872;DHT22;6504;53.766;9.626;2024-03-07T06:43:05;2.20;99.90
12872;DHT22;6504;53.766;9.626;2024-03-07T06:45:33;2.20;99.90
12872;DHT22;6504;53.766;9.626;2024-03-07T06:48:02;2.20;99.90
12872;DHT22;6504;53.766;9.626;2024-03-07T06:50:31;2.20;99.90
12872;DHT22;6504;53.766;9.626;2024-03-07T06:53:05;2.20;99.90
12872;DHT22;6504;53.766;9.626;2024-03-07T06:55:35;2.20;99.90
12872;DHT22;6504;53.766;9.626;2024-03-07T06:58:05;2.20;99.90
12872;DHT22;6504;53.766;9.626;2024-03-07T07:00:33;2.20;99.90
12872;DHT22;6504;53.766;9.626;2024-03-07T07:03:05;2.20;99.90
12872;DHT22;6504;53.766;9.626;2024-03-07T07:05:34;2.20;99.90
12872;DHT22;6504;53.766;9.626;2024-03-07T07:08:03;2.20;99.90
12872;DHT22;6504;53.766;9.626;2024-03-07T07:10:34;2.20;99.90
12872;DHT22;6504;53.766;9.626;2024-03-07T07:13:04;2.20;99.90
12872;DHT22;6504;53.766;9.626;2024-03-07T07:15:33;2.20;99.90
12872;DHT22;6504;53.766;9.626;2024-03-07T07:18:01;2.20;99.90
12872;DHT22;6504;53.766;9.626;2024-03-07T07:20:30;2.20;99.90
12872;DHT22;6504;53.766;9.626;2024-03-07T07:23:01;2.20;99.90
12872;DHT22;6504;53.766;9.626;2024-03-07T07:25:31;2.30;99.90
12872;DHT22;6504;53.766;9.626;2024-03-07T07:28:00;2.30;99.90
12872;DHT22;6504;53.766;9.626;2024-03-07T07:30:29;2.30;99.90
12872;DHT22;6504;53.766;9.626;2024-03-07T07:32:58;2.30;99.90
12872;DHT22;6504;53.766;9.626;2024-03-07T07:35:26;2.30;99.90
12872;DHT22;6504;53.766;9.626;2024-03-07T07:37:54;2.30;99.90
12872;DHT22;6504;53.766;9.626;2024-03-07T07:40:24;2.30;99.90
12872;DHT22;6504;53.766;9.626;2024-03-07T07:42:54;2.40;99.90
12872;DHT22;6504;53.766;9.626;2024-03-07T07:45:23;2.40;99.90
12872;DHT22;6504;53.766;9.626;2024-03-07T07:47:53;2.40;99.90
12872;DHT22;6504;53.766;9.626;2024-03-07T07:50:23;2.50;99.90
12872;DHT22;6504;53.766;9.626;2024-03-07T07:52:52;2.40;99.90
12872;DHT22;6504;53.766;9.626;2024-03-07T07:55:22;2.50;99.90
12872;DHT22;6504;53.766;9.626;2024-03-07T07:57:51;2.50;99.90
12872;DHT22;6504;53.766;9.626;2024-03-07T08:00:22;2.50;99.90
12872;DHT22;6504;53.766;9.626;2024-03-07T08:02:54;2.60;99.90
12872;DHT22;6504;53.766;9.626;2024-03-07T08:05:25;2.60;99.90
12872;DHT22;6504;53.766;9.626;2024-03-07T08:07:55;2.60;99.90
12872;DHT22;6504;53.766;9.626;2024-03-07T08:10:25;2.60;99.90
12872;DHT22;6504;53.766;9.626;2024-03-07T08:12:56;2.60;99.90
12872;DHT22;6504;53.766;9.626;2024-03-07T08:15:25;2.70;99.90
12872;DHT22;6504;53.766;9.626;2024-03-07T08:17:57;2.70;99.90
12872;DHT22;6504;53.766;9.626;2024-03-07T08:20:27;2.70;99.90
12872;DHT22;6504;53.766;9.626;2024-03-07T08:22:56;2.80;99.90
12872;DHT22;6504;53.766;9.626;2024-03-07T08:25:27;2.80;99.90
12872;DHT22;6504;53.766;9.626;2024-03-07T08:27:57;2.80;99.90
12872;DHT22;6504;53.766;9.626;2024-03-07T08:30:25;2.90;99.90
12872;DHT22;6504;53.766;9.626;2024-03-07T08:32:58;2.90;99.90
12872;DHT22;6504;53.766;9.626;2024-03-07T08:35:29;3.00;99.90
12872;DHT22;6504;53.766;9.626;2024-03-07T08:37:57;3.00;99.90
12872;DHT22;6504;53.766;9.626;2024-03-07T08:40:27;3.10;99.90
12872;DHT22;6504;53.766;9.626;2024-03-07T08:42:59;3.20;99.90
12872;DHT22;6504;53.766;9.626;2024-03-07T08:45:28;3.20;99.90
12872;DHT22;6504;53.766;9.626;2024-03-07T08:48:02;3.30;99.90
12872;DHT22;6504;53.766;9.626;2024-03-07T08:50:33;3.30;99.90
12872;DHT22;6504;53.766;9.626;2024-03-07T08:53:02;3.40;99.90
12872;DHT22;6504;53.766;9.626;2024-03-07T08:55:31;3.40;99.90
12872;DHT22;6504;53.766;9.626;2024-03-07T08:57:59;3.40;99.90
12872;DHT22;6504;53.766;9.626;2024-03-07T09:00:27;3.50;99.90
12872;DHT22;6504;53.766;9.626;2024-03-07T09:02:56;3.50;99.90
12872;DHT22;6504;53.766;9.626;2024-03-07T09:05:30;3.50;99.90
12872;DHT22;6504;53.766;9.626;2024-03-07T09:08:00;3.50;99.90
12872;DHT22;6504;53.766;9.626;2024-03-07T09:10:29;3.50;99.90
12872;DHT22;6504;53.766;9.626;2024-03-07T09:12:58;3.60;99.90
12872;DHT22;6504;53.766;9.626;2024-03-07T09:15:26;3.60;99.90
12872;DHT22;6504;53.766;9.626;2024-03-07T09:17:55;3.50;99.90
12872;DHT22;6504;53.766;9.626;2024-03-07T09:20:25;3.60;99.90
12872;DHT22;6504;53.766;9.626;2024-03-07T09:22:55;3.60;99.90
12872;DHT22;6504;53.766;9.626;2024-03-07T09:25:25;3.60;99.90
12872;DHT22;6504;53.766;9.626;2024-03-07T09:27:54;3.60;99.90
12872;DHT22;6504;53.766;9.626;2024-03-07T09:30:22;3.60;99.90
12872;DHT22;6504;53.766;9.626;2024-03-07T09:32:54;3.60;99.90
12872;DHT22;6504;53.766;9.626;2024-03-07T09:35:23;3.70;99.90
12872;DHT22;6504;53.766;9.626;2024-03-07T09:37:52;3.70;99.90
12872;DHT22;6504;53.766;9.626;2024-03-07T09:40:22;3.80;99.90
12872;DHT22;6504;53.766;9.626;2024-03-07T09:42:54;3.90;99.90
12872;DHT22;6504;53.766;9.626;2024-03-07T09:45:30;3.90;99.90
12872;DHT22;6504;53.766;9.626;2024-03-07T09:47:59;3.90;99.90
12872;DHT22;6504;53.766;9.626;2024-03-07T09:50:30;4.00;99.90
12872;DHT22;6504;53.766;9.626;2024-03-07T09:52:59;4.00;99.90
12872;DHT22;6504;53.766;9.626;2024-03-07T09:55:29;4.00;99.90
12872;DHT22;6504;53.766;9.626;2024-03-07T09:58:00;4.00;99.90
12872;DHT22;6504;53.766;9.626;2024-03-07T10:00:28;4.00;99.90
12872;DHT22;6504;53.766;9.626;2024-03-07T10:02:59;4.10;99.90
12872;DHT22;6504;53.766;9.626;2024-03-07T10:05:30;4.10;99.90
12872;DHT22;6504;53.766;9.626;2024-03-07T10:07:59;4.10;99.90
12872;DHT22;6504;53.766;9.626;2024-03-07T10:10:29;4.10;99.90
12872;DHT22;6504;53.766;9.626;2024-03-07T10:12:59;4.10;99.90
12872;DHT22;6504;53.766;9.626;2024-03-07T10:15:28;4.10;99.90
12872;DHT22;6504;53.766;9.626;2024-03-07T10:17:56;4.10;99.90
12872;DHT22;6504;53.766;9.626;2024-03-07T10:20:25;4.00;99.90
12872;DHT22;6504;53.766;9.626;2024-03-07T10:22:54;3.90;99.90
12872;DHT22;6504;53.766;9.626;2024-03-07T10:25:24;3.90;99.90
12872;DHT22;6504;53.766;9.626;2024-03-07T10:27:57;3.90;99.90
12872;DHT22;6504;53.766;9.626;2024-03-07T10:30:27;3.90;99.90
12872;DHT22;6504;53.766;9.626;2024-03-07T10:32:56;3.90;99.90
12872;DHT22;6504;53.766;9.626;2024-03-07T10:35:27;3.80;99.90
12872;DHT22;6504;53.766;9.626;2024-03-07T10:37:56;3.80;99.90
12872;DHT22;6504;53.766;9.626;2024-03-07T10:40:28;3.80;99.90
12872;DHT22;6504;53.766;9.626;2024-03-07T10:42:59;3.70;99.90
12872;DHT22;6504;53.766;9.626;2024-03-07T10:45:30;3.70;99.90
12872;DHT22;6504;53.766;9.626;2024-03-07T10:48:03;3.60;99.90
12872;DHT22;6504;53.766;9.626;2024-03-07T10:50:41;3.70;99.90
12872;DHT22;6504;53.766;9.626;2024-03-07T10:53:19;3.70;99.90
12872;DHT22;6504;53.766;9.626;2024-03-07T10:55:54;3.70;99.90
12872;DHT22;6504;53.766;9.626;2024-03-07T10:58:36;3.70;99.90
12872;DHT22;6504;53.766;9.626;2024-03-07T11:01:05;3.70;99.90
12872;DHT22;6504;53.766;9.626;2024-03-07T11:03:35;3.70;99.90
12872;DHT22;6504;53.766;9.626;2024-03-07T11:06:03;3.70;99.90
12872;DHT22;6504;53.766;9.626;2024-03-07T11:08:34;3.70;99.90
12872;DHT22;6504;53.766;9.626;2024-03-07T11:11:03;3.70;99.90
12872;DHT22;6504;53.766;9.626;2024-03-07T11:13:33;3.70;99.90
12872;DHT22;6504;53.766;9.626;2024-03-07T11:16:02;3.70;99.90
12872;DHT22;6504;53.766;9.626;2024-03-07T11:18:31;3.70;99.90
12872;DHT22;6504;53.766;9.626;2024-03-07T11:20:59;3.80;99.90
12872;DHT22;6504;53.766;9.626;2024-03-07T11:23:28;3.80;99.90
12872;DHT22;6504;53.766;9.626;2024-03-07T11:26:04;3.80;99.90
12872;DHT22;6504;53.766;9.626;2024-03-07T11:28:36;3.80;99.90
12872;DHT22;6504;53.766;9.626;2024-03-07T11:31:09;3.90;99.90
12872;DHT22;6504;53.766;9.626;2024-03-07T11:33:38;3.90;99.90
12872;DHT22;6504;53.766;9.626;2024-03-07T11:36:08;3.90;99.90
12872;DHT22;6504;53.766;9.626;2024-03-07T11:38:44;3.90;99.90
12872;DHT22;6504;53.766;9.626;2024-03-07T11:41:12;4.00;99.90
12872;DHT22;6504;53.766;9.626;2024-03-07T11:43:42;4.00;99.90
12872;DHT22;6504;53.766;9.626;2024-03-07T11:46:11;4.00;99.90
12872;DHT22;6504;53.766;9.626;2024-03-07T11:48:43;4.10;99.90
12872;DHT22;6504;53.766;9.626;2024-03-07T11:51:13;4.20;99.90
12872;DHT22;6504;53.766;9.626;2024-03-07T11:53:43;4.20;99.90
12872;DHT22;6504;53.766;9.626;2024-03-07T11:56:15;4.20;99.90
12872;DHT22;6504;53.766;9.626;2024-03-07T11:58:45;4.30;99.90
12872;DHT22;6504;53.766;9.626;2024-03-07T12:01:21;4.30;99.90
12872;DHT22;6504;53.766;9.626;2024-03-07T12:03:52;4.40;99.90
12872;DHT22;6504;53.766;9.626;2024-03-07T12:06:23;4.40;99.90
12872;DHT22;6504;53.766;9.626;2024-03-07T12:08:52;4.50;99.90
12872;DHT22;6504;53.766;9.626;2024-03-07T12:11:20;4.60;99.90
12872;DHT22;6504;53.766;9.626;2024-03-07T12:13:50;4.60;99.90
12872;DHT22;6504;53.766;9.626;2024-03-07T12:16:19;4.60;99.90
12872;DHT22;6504;53.766;9.626;2024-03-07T12:18:47;4.70;99.90
12872;DHT22;6504;53.766;9.626;2024-03-07T12:21:16;4.70;99.90
12872;DHT22;6504;53.766;9.626;2024-03-07T12:23:45;4.70;99.90
12872;DHT22;6504;53.766;9.626;2024-03-07T12:26:20;4.80;99.90
12872;DHT22;6504;53.766;9.626;2024-03-07T12:28:53;4.80;99.90
12872;DHT22;6504;53.766;9.626;2024-03-07T12:31:21;4.80;99.90
12872;DHT22;6504;53.766;9.626;2024-03-07T12:33:51;4.90;99.90
12872;DHT22;6504;53.766;9.626;2024-03-07T12:36:20;4.90;99.90
12872;DHT22;6504;53.766;9.626;2024-03-07T12:38:53;5.00;99.90
12872;DHT22;6504;53.766;9.626;2024-03-07T12:41:22;5.00;99.90
12872;DHT22;6504;53.766;9.626;2024-03-07T12:43:52;5.00;99.90
12872;DHT22;6504;53.766;9.626;2024-03-07T12:46:20;5.10;99.90
12872;DHT22;6504;53.766;9.626;2024-03-07T12:48:48;5.10;99.90
12872;DHT22;6504;53.766;9.626;2024-03-07T12:51:17;5.10;99.90
12872;DHT22;6504;53.766;9.626;2024-03-07T12:53:47;5.20;99.90
12872;DHT22;6504;53.766;9.626;2024-03-07T12:56:16;5.20;99.90
12872;DHT22;6504;53.766;9.626;2024-03-07T12:58:47;5.30;99.90
12872;DHT22;6504;53.766;9.626;2024-03-07T13:01:18;5.30;99.90
12872;DHT22;6504;53.766;9.626;2024-03-07T13:03:47;5.30;99.90
12872;DHT22;6504;53.766;9.626;2024-03-07T13:06:16;5.40;99.90
12872;DHT22;6504;53.766;9.626;2024-03-07T13:08:52;5.40;99.90
12872;DHT22;6504;53.766;9.626;2024-03-07T13:11:20;5.40;99.90
12872;DHT22;6504;53.766;9.626;2024-03-07T13:13:50;5.50;99.90
12872;DHT22;6504;53.766;9.626;2024-03-07T13:16:20;5.50;99.90
12872;DHT22;6504;53.766;9.626;2024-03-07T13:18:48;5.50;99.90
12872;DHT22;6504;53.766;9.626;2024-03-07T13:21:17;5.60;99.90
12872;DHT22;6504;53.766;9.626;2024-03-07T13:23:46;5.60;99.90
12872;DHT22;6504;53.766;9.626;2024-03-07T13:26:17;5.60;99.90
12872;DHT22;6504;53.766;9.626;2024-03-07T13:28:51;5.70;99.90
12872;DHT22;6504;53.766;9.626;2024-03-07T13:31:21;5.70;99.90
12872;DHT22;6504;53.766;9.626;2024-03-07T13:33:50;5.70;99.90
12872;DHT22;6504;53.766;9.626;2024-03-07T13:36:18;5.70;99.90
12872;DHT22;6504;53.766;9.626;2024-03-07T13:38:49;5.70;99.90
12872;DHT22;6504;53.766;9.626;2024-03-07T13:41:19;5.80;99.90
12872;DHT22;6504;53.766;9.626;2024-03-07T13:43:47;5.80;99.90
12872;DHT22;6504;53.766;9.626;2024-03-07T13:46:16;5.80;99.90
12872;DHT22;6504;53.766;9.626;2024-03-07T13:48:46;5.80;99.90
12872;DHT22;6504;53.766;9.626;2024-03-07T13:51:14;5.80;99.90
12872;DHT22;6504;53.766;9.626;2024-03-07T13:53:43;5.80;99.90
12872;DHT22;6504;53.766;9.626;2024-03-07T13:56:44;5.80;99.90
12872;DHT22;6504;53.766;9.626;2024-03-07T13:59:31;5.80;99.90
12872;DHT22;6504;53.766;9.626;2024-03-07T14:02:34;5.80;99.90
12872;DHT22;6504;53.766;9.626;2024-03-07T14:05:38;5.90;99.90
12872;DHT22;6504;53.766;9.626;2024-03-07T14:08:46;5.90;99.90
12872;DHT22;6504;53.766;9.626;2024-03-07T14:11:41;5.90;99.90
12872;DHT22;6504;53.766;9.626;2024-03-07T14:14:35;5.90;99.90
12872;DHT22;6504;53.766;9.626;2024-03-07T14:17:39;5.90;99.90
12872;DHT22;6504;53.766;9.626;2024-03-07T14:27:27;6.00;99.90
12872;DHT22;6504;53.766;9.626;2024-03-07T14:30:24;6.00;99.90
12872;DHT22;6504;53.766;9.626;2024-03-07T14:35:39;6.00;99.90
12872;DHT22;6504;53.766;9.626;2024-03-07T14:38:25;6.00;99.90
12872;DHT22;6504;53.766;9.626;2024-03-07T14:40:54;6.00;99.90
12872;DHT22;6504;53.766;9.626;2024-03-07T14:43:24;6.00;99.90
12872;DHT22;6504;53.766;9.626;2024-03-07T14:45:52;6.00;99.90
12872;DHT22;6504;53.766;9.626;2024-03-07T14:48:22;6.00;99.90
12872;DHT22;6504;53.766;9.626;2024-03-07T14:50:51;6.10;99.90
12872;DHT22;6504;53.766;9.626;2024-03-07T14:53:19;6.10;99.90
12872;DHT22;6504;53.766;9.626;2024-03-07T14:55:48;6.10;99.90
12872;DHT22;6504;53.766;9.626;2024-03-07T14:58:16;6.20;99.90
12872;DHT22;6504;53.766;9.626;2024-03-07T15:00:48;6.20;99.90
12872;DHT22;6504;53.766;9.626;2024-03-07T15:03:24;6.30;99.90
12872;DHT22;6504;53.766;9.626;2024-03-07T15:05:56;6.40;99.90
12872;DHT22;6504;53.766;9.626;2024-03-07T15:08:26;6.40;99.90
12872;DHT22;6504;53.766;9.626;2024-03-07T15:10:59;6.50;99.90
12872;DHT22;6504;53.766;9.626;2024-03-07T15:13:36;6.50;99.90
12872;DHT22;6504;53.766;9.626;2024-03-07T15:16:06;6.50;99.90
12872;DHT22;6504;53.766;9.626;2024-03-07T15:18:40;6.50;99.90
12872;DHT22;6504;53.766;9.626;2024-03-07T15:21:10;6.50;99.90
12872;DHT22;6504;53.766;9.626;2024-03-07T15:23:45;6.50;99.90
12872;DHT22;6504;53.766;9.626;2024-03-07T15:26:14;6.40;99.90
12872;DHT22;6504;53.766;9.626;2024-03-07T15:28:44;6.40;99.90
12872;DHT22;6504;53.766;9.626;2024-03-07T15:31:14;6.40;99.90
12872;DHT22;6504;53.766;9.626;2024-03-07T15:33:46;6.40;99.90
12872;DHT22;6504;53.766;9.626;2024-03-07T15:36:15;6.30;99.90
12872;DHT22;6504;53.766;9.626;2024-03-07T15:38:44;6.30;99.90
12872;DHT22;6504;53.766;9.626;2024-03-07T15:41:13;6.30;99.90
12872;DHT22;6504;53.766;9.626;2024-03-07T15:43:41;6.30;99.90
12872;DHT22;6504;53.766;9.626;2024-03-07T15:46:11;6.30;99.90
12872;DHT22;6504;53.766;9.626;2024-03-07T15:48:44;6.20;99.90
12872;DHT22;6504;53.766;9.626;2024-03-07T15:51:14;6.20;99.90
12872;DHT22;6504;53.766;9.626;2024-03-07T15:53:42;6.20;99.90
12872;DHT22;6504;53.766;9.626;2024-03-07T15:56:10;6.20;99.90
12872;DHT22;6504;53.766;9.626;2024-03-07T15:58:38;6.20;99.90
12872;DHT22;6504;53.766;9.626;2024-03-07T16:01:06;6.20;99.90
12872;DHT22;6504;53.766;9.626;2024-03-07T16:03:34;6.20;99.90
12872;DHT22;6504;53.766;9.626;2024-03-07T16:06:04;6.20;99.90
12872;DHT22;6504;53.766;9.626;2024-03-07T16:08:34;6.20;99.90
12872;DHT22;6504;53.766;9.626;2024-03-07T16:11:02;6.20;99.90
12872;DHT22;6504;53.766;9.626;2024-03-07T16:13:30;6.10;99.90
12872;DHT22;6504;53.766;9.626;2024-03-07T16:15:58;6.10;99.90
12872;DHT22;6504;53.766;9.626;2024-03-07T16:18:27;6.10;99.90
12872;DHT22;6504;53.766;9.626;2024-03-07T16:20:55;6.00;99.90
12872;DHT22;6504;53.766;9.626;2024-03-07T16:23:26;6.00;99.90
12872;DHT22;6504;53.766;9.626;2024-03-07T16:25:54;5.90;99.90
12872;DHT22;6504;53.766;9.626;2024-03-07T16:28:22;5.90;99.90
12872;DHT22;6504;53.766;9.626;2024-03-07T16:30:54;5.90;99.90
12872;DHT22;6504;53.766;9.626;2024-03-07T16:33:24;5.80;99.90